Sinai, South Dakota
Current Conditions -  °F | °C
As of 7:30 AM on Sunday 21 Dec 2014 (Local Time) from KMDS Reporting Station
Moderate Fog Moderate Fog  
Wind Chill: -6°   Ceiling: 200
Heat Index: -1°   Visibility: 0.25mi
Dew Point: -1°   Wind: 9mph
Humidity: 100%   Direction: 150°SSE
Pressure: 29.76"   Gusts: NA
Location:  44.24°N, 97.04°W
Report Text: KMDS 211330Z AUTO 15008KT 1/4SM FZFG OVC002 M01/M01 A2976 RMK AO2
Loading
Personal Weather Stations






























Interactive Weather Map New forecast layout! Learn more

10-Day Weather Forecast

Advertisements
Track Severe Weather on mobile